»·PEaware :: N902SQ KRAL-KBFL

N902SQ :: KRAL-KBFL

FLIGHT INFORMATION

Flight Status: Arrived
Operator: Privately registered:
United States
More flights under this callsign
Pilot: Gabor H. (24209)
Aircraft: SOCATA TBM-900
(TBM9)
More flights by this aircraft type
Origin: KRAL Riverside Mun
United States
Destination: KBFL Meadows
United States
More flights between these airports :: More routes between these airports
Route: RAL2 PDZ V186 DARTS V459 LHS
File this flight plan on PilotEdge
Remarks:
Altitude:
(Current/Filed)
12,000ft
Speed:
(Current/Filed)
285kts
Departed: 14-Nov-23 11:16 AM
Arrived: 14-Nov-23 11:50 AM
Distance/Time
Traveled:
118nm/0:34
Distance/Time
To Go:
Arrived

Flight Plot

Page will automatically refresh every two minutes.

Flight plan parsing failed; only flown route is shown


Map Options




Map Legend


Flown Route
Filed Route
Departure Airport
Arrival Airport
Navaid (VOR, NDB)
Fix

Horizontal Profiles

Position Reports

Time Latitude Longitude Heading Altitude Ground
Speed
14-Nov-23 11:04 33.950107 -117.443035 118 818ft 0kts
14-Nov-23 11:05 33.950106 -117.443035 118 818ft 0kts
14-Nov-23 11:06 33.950106 -117.443035 118 818ft 0kts
14-Nov-23 11:07 33.950106 -117.443035 118 818ft 0kts
14-Nov-23 11:08 33.950106 -117.443035 118 818ft 0kts
14-Nov-23 11:09 33.950106 -117.443035 118 818ft 0kts
14-Nov-23 11:10 33.950106 -117.443035 118 818ft 0kts
14-Nov-23 11:11 33.950106 -117.443035 118 818ft 0kts
14-Nov-23 11:12 33.950657 -117.441502 112 818ft 14kts
14-Nov-23 11:13 33.950156 -117.436630 104 818ft 14kts
14-Nov-23 11:14 33.950239 -117.434930 11 818ft 10kts
14-Nov-23 11:15 33.954464 -117.455853 282 1308ft 135kts
14-Nov-23 11:16 33.944986 -117.497934 224 3785ft 140kts
14-Nov-23 11:17 33.928506 -117.536067 286 6193ft 144kts
14-Nov-23 11:18 33.942033 -117.581815 288 8496ft 149kts
14-Nov-23 11:19 33.956590 -117.628108 286 10844ft 150kts
14-Nov-23 11:20 33.973310 -117.681533 285 12057ft 215kts
14-Nov-23 11:21 33.997098 -117.756871 286 12009ft 256kts
14-Nov-23 11:22 34.022836 -117.838465 286 12002ft 262kts
14-Nov-23 11:23 34.048663 -117.920653 286 12000ft 262kts
14-Nov-23 11:24 34.074514 -118.003199 286 11996ft 263kts
14-Nov-23 11:25 34.099949 -118.085996 286 11999ft 263kts
14-Nov-23 11:26 34.125303 -118.168808 286 11997ft 262kts
14-Nov-23 11:27 34.150525 -118.251460 286 11994ft 262kts
14-Nov-23 11:28 34.210190 -118.301192 331 11998ft 274kts
14-Nov-23 11:29 34.279266 -118.341071 331 11979ft 275kts
14-Nov-23 11:30 34.348318 -118.381234 331 11944ft 275kts
14-Nov-23 11:31 34.417089 -118.421295 330 11931ft 275kts
14-Nov-23 11:32 34.485855 -118.461448 330 11958ft 274kts
14-Nov-23 11:33 34.554972 -118.501884 330 11893ft 275kts
14-Nov-23 11:34 34.623452 -118.541992 330 11972ft 273kts
14-Nov-23 11:35 34.691780 -118.582526 328 11971ft 273kts
14-Nov-23 11:36 34.760976 -118.626461 329 11225ft 290kts
14-Nov-23 11:37 34.832290 -118.671769 329 10236ft 289kts
14-Nov-23 11:38 34.900975 -118.715470 330 9998ft 269kts
14-Nov-23 11:39 34.969202 -118.752680 341 9511ft 281kts
14-Nov-23 11:40 35.044413 -118.780674 342 7727ft 277kts
14-Nov-23 11:41 35.117241 -118.807702 342 5926ft 273kts
14-Nov-23 11:42 35.188951 -118.834301 343 4221ft 268kts
14-Nov-23 11:43 35.258120 -118.859949 343 2600ft 243kts
14-Nov-23 11:44 35.305122 -118.901129 315 2489ft 194kts
14-Nov-23 11:45 35.342345 -118.945901 314 2496ft 183kts
14-Nov-23 11:46 35.375584 -118.985922 314 2035ft 151kts
14-Nov-23 11:47 35.403901 -119.020040 315 1287ft 137kts
14-Nov-23 11:48 35.426927 -119.047769 315 632ft 99kts
14-Nov-23 11:49 35.436645 -119.057501 98 496ft 11kts
14-Nov-23 11:50 35.432229 -119.051970 135 495ft 22kts
14-Nov-23 11:51 35.428324 -119.047278 138 492ft 20kts
14-Nov-23 11:52 35.425730 -119.041692 52 489ft 14kts
14-Nov-23 11:53 35.426172 -119.041057 92 492ft 0kts
14-Nov-23 11:54 35.426172 -119.041057 92 492ft 0kts
14-Nov-23 11:55 35.426172 -119.041057 92 492ft 0kts
14-Nov-23 11:56 35.426172 -119.041057 92 492ft 0kts
14-Nov-23 11:57 35.426172 -119.041057 92 492ft 0kts

Navigation Log

Ident Type
Flight plan parsing failed, navigation log unavailable